HKE533 RPLC-VHHH
Flight info
| Callsign | HKE533 |
|---|---|
| Flight time | 1h 42m |
| Altitude | 34000 |
| Route | MALIB2C MALIB W4 SANRO A461 NOMAN DCT OSUMO DCT BETTY |
| Aircraft | A321/M-SDE3FGHIRWY/LB1 |
Departure
| Time | 2026-04-25 13:48 |
|---|---|
| Airport | Clark International Airport / Clark Air Base (RPLC) |
Arrival
| Time | 2026-04-25 15:30 |
|---|---|
| Airport | Hong Kong International Airport (VHHH) |
| Time | Latitude | Longitude | Altitude | Speed | Heading |
|---|---|---|---|---|---|
| 2026-04-25 13:37 | 15.18946 | 120.55534 | 455 ft | 0 kts | 109° |
| 2026-04-25 13:40 | 15.18951 | 120.55519 | 454 ft | 3 kts | 109° |
| 2026-04-25 13:40 | 15.18956 | 120.55507 | 453 ft | 3 kts | 95° |
| 2026-04-25 13:41 | 15.18956 | 120.55502 | 451 ft | 0 kts | 77° |
| 2026-04-25 13:42 | 15.18963 | 120.55509 | 452 ft | 4 kts | 42° |
| 2026-04-25 13:42 | 15.18996 | 120.55523 | 454 ft | 11 kts | 24° |
| 2026-04-25 13:42 | 15.19081 | 120.55570 | 452 ft | 14 kts | 59° |
| 2026-04-25 13:42 | 15.19024 | 120.55632 | 452 ft | 13 kts | 166° |
| 2026-04-25 13:43 | 15.18962 | 120.55687 | 453 ft | 12 kts | 113° |
| 2026-04-25 13:43 | 15.18928 | 120.55770 | 453 ft | 13 kts | 112° |
| 2026-04-25 13:43 | 15.18895 | 120.55858 | 454 ft | 13 kts | 111° |
| 2026-04-25 13:43 | 15.18913 | 120.55942 | 452 ft | 14 kts | 34° |
| 2026-04-25 13:44 | 15.19010 | 120.55977 | 450 ft | 16 kts | 18° |
| 2026-04-25 13:44 | 15.19059 | 120.56064 | 448 ft | 17 kts | 107° |
| 2026-04-25 13:44 | 15.19025 | 120.56180 | 448 ft | 17 kts | 110° |
| 2026-04-25 13:44 | 15.18991 | 120.56279 | 447 ft | 10 kts | 109° |
| 2026-04-25 13:45 | 15.18972 | 120.56347 | 448 ft | 10 kts | 92° |
| 2026-04-25 13:45 | 15.19035 | 120.56411 | 437 ft | 18 kts | 21° |
| 2026-04-25 13:45 | 15.19186 | 120.56478 | 426 ft | 30 kts | 23° |
| 2026-04-25 13:45 | 15.19425 | 120.56573 | 435 ft | 43 kts | 21° |
| 2026-04-25 13:46 | 15.19709 | 120.56684 | 421 ft | 43 kts | 20° |
| 2026-04-25 13:46 | 15.19992 | 120.56792 | 419 ft | 43 kts | 20° |
| 2026-04-25 13:46 | 15.20115 | 120.56830 | 415 ft | 9 kts | 78° |
| 2026-04-25 13:46 | 15.20080 | 120.56838 | 416 ft | 4 kts | 214° |
| 2026-04-25 13:47 | 15.20065 | 120.56829 | 415 ft | 0 kts | 204° |
| 2026-04-25 13:47 | 15.19899 | 120.56762 | 422 ft | 61 kts | 201° |
| 2026-04-25 13:47 | 15.19292 | 120.56521 | 433 ft | 124 kts | 201° |
| 2026-04-25 13:48 | 15.18331 | 120.56137 | 477 ft | 173 kts | 202° |
| 2026-04-25 13:48 | 15.17198 | 120.55679 | 1073 ft | 173 kts | 201° |
| 2026-04-25 13:48 | 15.16072 | 120.55232 | 1733 ft | 173 kts | 199° |
| 2026-04-25 13:48 | 15.14941 | 120.54785 | 2310 ft | 177 kts | 199° |
| 2026-04-25 13:49 | 15.13738 | 120.54309 | 2503 ft | 194 kts | 199° |
| 2026-04-25 13:49 | 15.12413 | 120.53791 | 2633 ft | 213 kts | 197° |
| 2026-04-25 13:49 | 15.10900 | 120.53717 | 2759 ft | 227 kts | 160° |
| 2026-04-25 13:49 | 15.09672 | 120.54732 | 3062 ft | 233 kts | 118° |
| 2026-04-25 13:50 | 15.09378 | 120.56353 | 3528 ft | 235 kts | 79° |
| 2026-04-25 13:50 | 15.10162 | 120.57812 | 4015 ft | 238 kts | 40° |
| 2026-04-25 13:50 | 15.11680 | 120.58441 | 4520 ft | 242 kts | 2° |
| 2026-04-25 13:50 | 15.13354 | 120.58204 | 5009 ft | 245 kts | 345° |
| 2026-04-25 13:51 | 15.14984 | 120.57647 | 5467 ft | 250 kts | 340° |
| 2026-04-25 13:51 | 15.16696 | 120.56992 | 5604 ft | 274 kts | 340° |
| 2026-04-25 13:51 | 15.18543 | 120.56320 | 5776 ft | 296 kts | 344° |
| 2026-04-25 13:51 | 15.20584 | 120.55818 | 6251 ft | 304 kts | 349° |
| 2026-04-25 13:52 | 15.22689 | 120.55457 | 6834 ft | 308 kts | 353° |
| 2026-04-25 13:52 | 15.24825 | 120.55171 | 7426 ft | 311 kts | 353° |
| 2026-04-25 13:52 | 15.26980 | 120.54916 | 8054 ft | 313 kts | 354° |
| 2026-04-25 13:52 | 15.29150 | 120.54664 | 8672 ft | 315 kts | 353° |
| 2026-04-25 13:53 | 15.31337 | 120.54402 | 9281 ft | 318 kts | 353° |
| 2026-04-25 13:53 | 15.33540 | 120.54128 | 9895 ft | 320 kts | 352° |
| 2026-04-25 13:53 | 15.35772 | 120.53843 | 10318 ft | 329 kts | 352° |
| 2026-04-25 13:53 | 15.38088 | 120.53540 | 10429 ft | 347 kts | 352° |
| 2026-04-25 13:54 | 15.40550 | 120.53215 | 10657 ft | 360 kts | 352° |
| 2026-04-25 13:54 | 15.43033 | 120.52886 | 11096 ft | 364 kts | 352° |
| 2026-04-25 13:54 | 15.45558 | 120.52552 | 11590 ft | 367 kts | 352° |
| 2026-04-25 13:54 | 15.48109 | 120.52217 | 12059 ft | 370 kts | 352° |
| 2026-04-25 13:55 | 15.50672 | 120.51885 | 12545 ft | 374 kts | 352° |
| 2026-04-25 13:55 | 15.53267 | 120.51551 | 13026 ft | 377 kts | 352° |
| 2026-04-25 13:55 | 15.55884 | 120.51211 | 13517 ft | 380 kts | 352° |
| 2026-04-25 13:55 | 15.58521 | 120.50868 | 13968 ft | 383 kts | 352° |
| 2026-04-25 13:56 | 15.61177 | 120.50523 | 14409 ft | 386 kts | 352° |
| 2026-04-25 13:56 | 15.63854 | 120.50173 | 14847 ft | 388 kts | 352° |
| 2026-04-25 13:56 | 15.66544 | 120.49825 | 15269 ft | 391 kts | 352° |
| 2026-04-25 13:56 | 15.69239 | 120.49387 | 15684 ft | 392 kts | 343° |
| 2026-04-25 13:57 | 15.71739 | 120.48280 | 16086 ft | 391 kts | 327° |
| 2026-04-25 13:57 | 15.73270 | 120.47292 | 16375 ft | 392 kts | 326° |
| 2026-04-25 13:57 | 15.76366 | 120.45254 | 16950 ft | 395 kts | 325° |
| 2026-04-25 13:57 | 15.78687 | 120.43711 | 17387 ft | 397 kts | 325° |
| 2026-04-25 13:58 | 15.81018 | 120.42156 | 17826 ft | 399 kts | 324° |
| 2026-04-25 13:58 | 15.83330 | 120.40617 | 18251 ft | 401 kts | 324° |
| 2026-04-25 13:58 | 15.85689 | 120.39055 | 18605 ft | 404 kts | 325° |
| 2026-04-25 13:58 | 15.88067 | 120.37487 | 18946 ft | 406 kts | 325° |
| 2026-04-25 13:59 | 15.90458 | 120.35909 | 19303 ft | 409 kts | 325° |
| 2026-04-25 13:59 | 15.92865 | 120.34319 | 19675 ft | 411 kts | 324° |
| 2026-04-25 13:59 | 15.95282 | 120.32717 | 20047 ft | 413 kts | 324° |
| 2026-04-25 13:59 | 15.97709 | 120.31109 | 20397 ft | 415 kts | 324° |
| 2026-04-25 14:00 | 16.00149 | 120.29492 | 20746 ft | 417 kts | 324° |
| 2026-04-25 14:00 | 16.02600 | 120.27865 | 21079 ft | 419 kts | 324° |
| 2026-04-25 14:00 | 16.05066 | 120.26229 | 21407 ft | 421 kts | 324° |
| 2026-04-25 14:00 | 16.07549 | 120.24586 | 21739 ft | 423 kts | 324° |
| 2026-04-25 14:01 | 16.10037 | 120.22941 | 22068 ft | 425 kts | 324° |
| 2026-04-25 14:01 | 16.12534 | 120.21287 | 22380 ft | 427 kts | 324° |
| 2026-04-25 14:01 | 16.15041 | 120.19619 | 22689 ft | 428 kts | 324° |
| 2026-04-25 14:01 | 16.17556 | 120.17939 | 22989 ft | 430 kts | 324° |
| 2026-04-25 14:02 | 16.20048 | 120.16278 | 23283 ft | 432 kts | 324° |
| 2026-04-25 14:02 | 16.22589 | 120.14589 | 23567 ft | 434 kts | 324° |
| 2026-04-25 14:02 | 16.25147 | 120.12894 | 23812 ft | 436 kts | 324° |
| 2026-04-25 14:02 | 16.26012 | 120.12322 | 23893 ft | 437 kts | 324° |
| 2026-04-25 14:03 | 16.30282 | 120.09491 | 24314 ft | 439 kts | 324° |
| 2026-04-25 14:03 | 16.32857 | 120.07780 | 24567 ft | 440 kts | 324° |
| 2026-04-25 14:03 | 16.35446 | 120.06056 | 24814 ft | 441 kts | 324° |
| 2026-04-25 14:03 | 16.38034 | 120.04333 | 25058 ft | 443 kts | 324° |
| 2026-04-25 14:04 | 16.40640 | 120.02598 | 25305 ft | 444 kts | 324° |
| 2026-04-25 14:04 | 16.43218 | 120.00880 | 25550 ft | 445 kts | 324° |
| 2026-04-25 14:04 | 16.45835 | 119.99136 | 25795 ft | 446 kts | 324° |
| 2026-04-25 14:04 | 16.48455 | 119.97390 | 26038 ft | 448 kts | 324° |
| 2026-04-25 14:05 | 16.51091 | 119.95635 | 26284 ft | 449 kts | 324° |
| 2026-04-25 14:05 | 16.53749 | 119.93863 | 26527 ft | 450 kts | 324° |
| 2026-04-25 14:05 | 16.56377 | 119.92110 | 26761 ft | 451 kts | 324° |
| 2026-04-25 14:05 | 16.59039 | 119.90335 | 26994 ft | 453 kts | 324° |
| 2026-04-25 14:06 | 16.61696 | 119.88560 | 27222 ft | 454 kts | 324° |
| 2026-04-25 14:06 | 16.64324 | 119.86803 | 27443 ft | 455 kts | 324° |
| 2026-04-25 14:06 | 16.67031 | 119.84997 | 27668 ft | 456 kts | 324° |
| 2026-04-25 14:06 | 16.69709 | 119.83208 | 27881 ft | 458 kts | 324° |
| 2026-04-25 14:07 | 16.72357 | 119.81435 | 28103 ft | 459 kts | 324° |
| 2026-04-25 14:07 | 16.75053 | 119.79631 | 28328 ft | 460 kts | 324° |
| 2026-04-25 14:07 | 16.77751 | 119.77826 | 28569 ft | 461 kts | 324° |
| 2026-04-25 14:07 | 16.80454 | 119.76020 | 28794 ft | 462 kts | 324° |
| 2026-04-25 14:08 | 16.83167 | 119.74207 | 29022 ft | 463 kts | 324° |
| 2026-04-25 14:08 | 16.85885 | 119.72389 | 29234 ft | 465 kts | 324° |
| 2026-04-25 14:08 | 16.88607 | 119.70565 | 29490 ft | 465 kts | 324° |
| 2026-04-25 14:08 | 16.91326 | 119.68743 | 29812 ft | 464 kts | 324° |
| 2026-04-25 14:09 | 16.94039 | 119.66928 | 30105 ft | 463 kts | 324° |
| 2026-04-25 14:09 | 16.96746 | 119.65113 | 30363 ft | 461 kts | 324° |
| 2026-04-25 14:09 | 16.99443 | 119.63304 | 30608 ft | 461 kts | 324° |
| 2026-04-25 14:10 | 17.03924 | 119.60301 | 31036 ft | 459 kts | 324° |
| 2026-04-25 14:10 | 17.07520 | 119.57888 | 31377 ft | 458 kts | 324° |
| 2026-04-25 14:10 | 17.10192 | 119.56090 | 31666 ft | 456 kts | 324° |
| 2026-04-25 14:10 | 17.12831 | 119.54313 | 31953 ft | 455 kts | 324° |
| 2026-04-25 14:11 | 17.15482 | 119.52524 | 32232 ft | 453 kts | 322° |
| 2026-04-25 14:11 | 17.17890 | 119.50450 | 32483 ft | 447 kts | 314° |
| 2026-04-25 14:11 | 17.20168 | 119.48213 | 32728 ft | 447 kts | 314° |
| 2026-04-25 14:11 | 17.22427 | 119.45984 | 32975 ft | 446 kts | 314° |
| 2026-04-25 14:12 | 17.24676 | 119.43754 | 33213 ft | 445 kts | 313° |
| 2026-04-25 14:12 | 17.26923 | 119.41527 | 33454 ft | 445 kts | 314° |
| 2026-04-25 14:12 | 17.29172 | 119.39307 | 33692 ft | 444 kts | 314° |
| 2026-04-25 14:12 | 17.31419 | 119.37092 | 33918 ft | 444 kts | 314° |
| 2026-04-25 14:13 | 17.33661 | 119.34881 | 33969 ft | 442 kts | 314° |
| 2026-04-25 14:13 | 17.38134 | 119.30471 | 33977 ft | 441 kts | 314° |
| 2026-04-25 14:14 | 17.42592 | 119.26064 | 33975 ft | 440 kts | 313° |
| 2026-04-25 14:14 | 17.47042 | 119.21663 | 33977 ft | 438 kts | 313° |
| 2026-04-25 14:15 | 17.51443 | 119.17304 | 33983 ft | 438 kts | 313° |
| 2026-04-25 14:15 | 17.55873 | 119.12916 | 33986 ft | 438 kts | 313° |
| 2026-04-25 14:16 | 17.60307 | 119.08522 | 33989 ft | 438 kts | 313° |
| 2026-04-25 14:16 | 17.64740 | 119.04124 | 33993 ft | 439 kts | 313° |
| 2026-04-25 14:17 | 17.69172 | 118.99724 | 33990 ft | 439 kts | 313° |
| 2026-04-25 14:17 | 17.73573 | 118.95345 | 33989 ft | 439 kts | 313° |
| 2026-04-25 14:18 | 17.78009 | 118.90942 | 33980 ft | 439 kts | 313° |
| 2026-04-25 14:18 | 17.82447 | 118.86530 | 33992 ft | 440 kts | 312° |
| 2026-04-25 14:19 | 17.86887 | 118.82103 | 33996 ft | 440 kts | 312° |
| 2026-04-25 14:19 | 17.91330 | 118.77677 | 33997 ft | 440 kts | 312° |
| 2026-04-25 14:20 | 17.95787 | 118.73258 | 33994 ft | 440 kts | 312° |
| 2026-04-25 14:20 | 18.00242 | 118.68832 | 34000 ft | 441 kts | 312° |
| 2026-04-25 14:21 | 18.04700 | 118.64405 | 33999 ft | 441 kts | 312° |
| 2026-04-25 14:21 | 18.09158 | 118.59980 | 34008 ft | 441 kts | 312° |
| 2026-04-25 14:22 | 18.13582 | 118.55577 | 34011 ft | 441 kts | 311° |
| 2026-04-25 14:22 | 18.18024 | 118.51143 | 34028 ft | 440 kts | 311° |
| 2026-04-25 14:23 | 18.22466 | 118.46715 | 34021 ft | 439 kts | 311° |
| 2026-04-25 14:23 | 18.26891 | 118.42298 | 34016 ft | 438 kts | 311° |
| 2026-04-25 14:24 | 18.31310 | 118.37879 | 34018 ft | 438 kts | 311° |
| 2026-04-25 14:24 | 18.35732 | 118.33471 | 34022 ft | 437 kts | 311° |
| 2026-04-25 14:25 | 18.40145 | 118.29064 | 34023 ft | 437 kts | 311° |
| 2026-04-25 14:25 | 18.44540 | 118.24661 | 34023 ft | 436 kts | 311° |
| 2026-04-25 14:26 | 18.48933 | 118.20263 | 34016 ft | 435 kts | 311° |
| 2026-04-25 14:26 | 18.52581 | 118.16608 | 34037 ft | 435 kts | 310° |
| 2026-04-25 14:27 | 18.57697 | 118.11479 | 34027 ft | 434 kts | 310° |
| 2026-04-25 14:27 | 18.61321 | 118.07839 | 34026 ft | 433 kts | 310° |
| 2026-04-25 14:28 | 18.65674 | 118.03460 | 34024 ft | 432 kts | 310° |
| 2026-04-25 14:28 | 18.70721 | 117.98385 | 34020 ft | 431 kts | 310° |
| 2026-04-25 14:29 | 18.74354 | 117.94732 | 34019 ft | 430 kts | 310° |
| 2026-04-25 14:29 | 18.78687 | 117.90373 | 34015 ft | 430 kts | 310° |
| 2026-04-25 14:30 | 18.83016 | 117.86007 | 34017 ft | 430 kts | 310° |
| 2026-04-25 14:30 | 18.89506 | 117.79465 | 34038 ft | 430 kts | 310° |
| 2026-04-25 14:31 | 18.93827 | 117.75099 | 34032 ft | 429 kts | 310° |
| 2026-04-25 14:31 | 18.98108 | 117.70772 | 34038 ft | 429 kts | 310° |
| 2026-04-25 14:32 | 19.02424 | 117.66428 | 34026 ft | 428 kts | 310° |
| 2026-04-25 14:32 | 19.06734 | 117.62083 | 34027 ft | 428 kts | 310° |
| 2026-04-25 14:33 | 19.11045 | 117.57731 | 34021 ft | 428 kts | 310° |
| 2026-04-25 14:33 | 19.15351 | 117.53373 | 34025 ft | 428 kts | 310° |
| 2026-04-25 14:34 | 19.19654 | 117.49020 | 34028 ft | 428 kts | 310° |
| 2026-04-25 14:34 | 19.23963 | 117.44671 | 34030 ft | 428 kts | 310° |
| 2026-04-25 14:35 | 19.28254 | 117.40324 | 34047 ft | 426 kts | 310° |
| 2026-04-25 14:35 | 19.32536 | 117.35984 | 34030 ft | 426 kts | 310° |
| 2026-04-25 14:36 | 19.36814 | 117.31653 | 34025 ft | 425 kts | 310° |
| 2026-04-25 14:36 | 19.41082 | 117.27318 | 34022 ft | 425 kts | 310° |
| 2026-04-25 14:37 | 19.45351 | 117.22987 | 34023 ft | 425 kts | 310° |
| 2026-04-25 14:37 | 19.49583 | 117.18681 | 34025 ft | 424 kts | 310° |
| 2026-04-25 14:38 | 19.53836 | 117.14350 | 34026 ft | 424 kts | 310° |
| 2026-04-25 14:38 | 19.58087 | 117.10016 | 34026 ft | 424 kts | 310° |
| 2026-04-25 14:39 | 19.62337 | 117.05684 | 34054 ft | 423 kts | 310° |
| 2026-04-25 14:39 | 19.66581 | 117.01369 | 34042 ft | 422 kts | 310° |
| 2026-04-25 14:40 | 19.70807 | 116.97060 | 34038 ft | 421 kts | 310° |
| 2026-04-25 14:40 | 19.75017 | 116.92751 | 34033 ft | 420 kts | 310° |
| 2026-04-25 14:41 | 19.79229 | 116.88441 | 34028 ft | 420 kts | 310° |
| 2026-04-25 14:41 | 19.83423 | 116.84155 | 34037 ft | 420 kts | 310° |
| 2026-04-25 14:42 | 19.86940 | 116.80564 | 34033 ft | 419 kts | 310° |
| 2026-04-25 14:42 | 19.91832 | 116.75549 | 34033 ft | 419 kts | 309° |
| 2026-04-25 14:43 | 19.96029 | 116.71238 | 34038 ft | 419 kts | 310° |
| 2026-04-25 14:43 | 20.00018 | 116.66770 | 34036 ft | 411 kts | 300° |
| 2026-04-25 14:44 | 20.02770 | 116.61553 | 34034 ft | 406 kts | 293° |
| 2026-04-25 14:44 | 20.05399 | 116.56240 | 34035 ft | 406 kts | 293° |
| 2026-04-25 14:45 | 20.08032 | 116.50938 | 34036 ft | 405 kts | 293° |
| 2026-04-25 14:45 | 20.10658 | 116.45634 | 34033 ft | 404 kts | 293° |
| 2026-04-25 14:46 | 20.13268 | 116.40333 | 34034 ft | 404 kts | 293° |
| 2026-04-25 14:46 | 20.15877 | 116.35027 | 34033 ft | 404 kts | 293° |
| 2026-04-25 14:47 | 20.18036 | 116.30630 | 34034 ft | 404 kts | 293° |
| 2026-04-25 14:47 | 20.21090 | 116.24418 | 34040 ft | 404 kts | 293° |
| 2026-04-25 14:48 | 20.23696 | 116.19117 | 34046 ft | 403 kts | 293° |
| 2026-04-25 14:48 | 20.26271 | 116.13858 | 34044 ft | 403 kts | 293° |
| 2026-04-25 14:49 | 20.28862 | 116.08573 | 34041 ft | 403 kts | 293° |
| 2026-04-25 14:49 | 20.31472 | 116.03252 | 34041 ft | 402 kts | 293° |
| 2026-04-25 14:50 | 20.34059 | 115.97967 | 34038 ft | 402 kts | 293° |
| 2026-04-25 14:50 | 20.36641 | 115.92683 | 34044 ft | 402 kts | 293° |
| 2026-04-25 14:51 | 20.39209 | 115.87433 | 34044 ft | 402 kts | 293° |
| 2026-04-25 14:51 | 20.41789 | 115.82148 | 34050 ft | 399 kts | 293° |
| 2026-04-25 14:52 | 20.44341 | 115.76909 | 34044 ft | 398 kts | 293° |
| 2026-04-25 14:52 | 20.46453 | 115.72552 | 34036 ft | 398 kts | 293° |
| 2026-04-25 14:53 | 20.49440 | 115.66419 | 34037 ft | 398 kts | 293° |
| 2026-04-25 14:53 | 20.51989 | 115.61176 | 34045 ft | 398 kts | 293° |
| 2026-04-25 14:54 | 20.54572 | 115.55941 | 33951 ft | 404 kts | 296° |
| 2026-04-25 14:54 | 20.56184 | 115.53497 | 33687 ft | 413 kts | 304° |
| 2026-04-25 14:54 | 20.58178 | 115.51254 | 33438 ft | 418 kts | 310° |
| 2026-04-25 14:55 | 20.60269 | 115.49101 | 33176 ft | 417 kts | 310° |
| 2026-04-25 14:55 | 20.62347 | 115.46948 | 32928 ft | 415 kts | 309° |
| 2026-04-25 14:55 | 20.64414 | 115.44789 | 32648 ft | 414 kts | 309° |
| 2026-04-25 14:55 | 20.66461 | 115.42640 | 32273 ft | 412 kts | 309° |
| 2026-04-25 14:56 | 20.68504 | 115.40491 | 32000 ft | 410 kts | 310° |
| 2026-04-25 14:56 | 20.70535 | 115.38358 | 31759 ft | 409 kts | 310° |
| 2026-04-25 14:56 | 20.72545 | 115.36253 | 31516 ft | 408 kts | 310° |
| 2026-04-25 14:56 | 20.74571 | 115.34130 | 31270 ft | 407 kts | 310° |
| 2026-04-25 14:57 | 20.76589 | 115.32013 | 31063 ft | 406 kts | 310° |
| 2026-04-25 14:57 | 20.78597 | 115.29904 | 30816 ft | 404 kts | 310° |
| 2026-04-25 14:57 | 20.80599 | 115.27801 | 30603 ft | 403 kts | 310° |
| 2026-04-25 14:57 | 20.82598 | 115.25703 | 30374 ft | 402 kts | 310° |
| 2026-04-25 14:58 | 20.84590 | 115.23611 | 30145 ft | 401 kts | 310° |
| 2026-04-25 14:58 | 20.86577 | 115.21520 | 29883 ft | 400 kts | 311° |
| 2026-04-25 14:58 | 20.88562 | 115.19436 | 29617 ft | 399 kts | 311° |
| 2026-04-25 14:58 | 20.90531 | 115.17368 | 29217 ft | 395 kts | 311° |
| 2026-04-25 14:59 | 20.92460 | 115.15341 | 28712 ft | 391 kts | 311° |
| 2026-04-25 14:59 | 20.94394 | 115.13310 | 28213 ft | 388 kts | 311° |
| 2026-04-25 14:59 | 20.96306 | 115.11297 | 27711 ft | 385 kts | 311° |
| 2026-04-25 14:59 | 20.98209 | 115.09292 | 27243 ft | 382 kts | 311° |
| 2026-04-25 15:00 | 20.99483 | 115.07951 | 26912 ft | 380 kts | 311° |
| 2026-04-25 15:00 | 21.01972 | 115.05331 | 26298 ft | 377 kts | 311° |
| 2026-04-25 15:00 | 21.03840 | 115.03361 | 25834 ft | 376 kts | 311° |
| 2026-04-25 15:00 | 21.05699 | 115.01399 | 25397 ft | 374 kts | 311° |
| 2026-04-25 15:01 | 21.07550 | 114.99442 | 24955 ft | 374 kts | 311° |
| 2026-04-25 15:01 | 21.09397 | 114.97493 | 24528 ft | 372 kts | 311° |
| 2026-04-25 15:01 | 21.11241 | 114.95546 | 24106 ft | 371 kts | 311° |
| 2026-04-25 15:01 | 21.13074 | 114.93609 | 23702 ft | 370 kts | 311° |
| 2026-04-25 15:02 | 21.14901 | 114.91673 | 23249 ft | 367 kts | 311° |
| 2026-04-25 15:02 | 21.16709 | 114.89755 | 22851 ft | 364 kts | 311° |
| 2026-04-25 15:02 | 21.18479 | 114.87881 | 22451 ft | 360 kts | 312° |
| 2026-04-25 15:02 | 21.20254 | 114.86006 | 22057 ft | 356 kts | 312° |
| 2026-04-25 15:03 | 21.22004 | 114.84154 | 21660 ft | 352 kts | 312° |
| 2026-04-25 15:03 | 21.23736 | 114.82319 | 21263 ft | 348 kts | 312° |
| 2026-04-25 15:03 | 21.25474 | 114.80480 | 20869 ft | 346 kts | 311° |
| 2026-04-25 15:03 | 21.26918 | 114.78395 | 20485 ft | 352 kts | 293° |
| 2026-04-25 15:04 | 21.27587 | 114.75881 | 20130 ft | 353 kts | 278° |
| 2026-04-25 15:04 | 21.27894 | 114.73285 | 19780 ft | 354 kts | 277° |
| 2026-04-25 15:04 | 21.28169 | 114.70662 | 19433 ft | 354 kts | 276° |
| 2026-04-25 15:04 | 21.28435 | 114.68043 | 19086 ft | 353 kts | 276° |
| 2026-04-25 15:05 | 21.28819 | 114.65457 | 18739 ft | 351 kts | 287° |
| 2026-04-25 15:05 | 21.29890 | 114.63119 | 18489 ft | 351 kts | 306° |
| 2026-04-25 15:05 | 21.31623 | 114.61277 | 18259 ft | 353 kts | 324° |
| 2026-04-25 15:06 | 21.36178 | 114.59398 | 17633 ft | 348 kts | 341° |
| 2026-04-25 15:06 | 21.38516 | 114.58718 | 17222 ft | 349 kts | 349° |
| 2026-04-25 15:06 | 21.40953 | 114.58763 | 16843 ft | 356 kts | 10° |
| 2026-04-25 15:06 | 21.43244 | 114.59778 | 16471 ft | 360 kts | 32° |
| 2026-04-25 15:07 | 21.45243 | 114.61404 | 16110 ft | 360 kts | 36° |
| 2026-04-25 15:07 | 21.47187 | 114.63091 | 15749 ft | 358 kts | 36° |
| 2026-04-25 15:07 | 21.49122 | 114.64765 | 15388 ft | 355 kts | 36° |
| 2026-04-25 15:07 | 21.51032 | 114.66425 | 15043 ft | 353 kts | 37° |
| 2026-04-25 15:08 | 21.52965 | 114.67971 | 14697 ft | 347 kts | 26° |
| 2026-04-25 15:08 | 21.55214 | 114.68760 | 14503 ft | 339 kts | 4° |
| 2026-04-25 15:08 | 21.57544 | 114.68596 | 14312 ft | 336 kts | 344° |
| 2026-04-25 15:08 | 21.59664 | 114.67603 | 14082 ft | 333 kts | 325° |
| 2026-04-25 15:09 | 21.61335 | 114.65904 | 13853 ft | 332 kts | 307° |
| 2026-04-25 15:09 | 21.62479 | 114.63750 | 13602 ft | 334 kts | 297° |
| 2026-04-25 15:09 | 21.64479 | 114.59252 | 13114 ft | 332 kts | 296° |
| 2026-04-25 15:10 | 21.65462 | 114.57018 | 13032 ft | 329 kts | 296° |
| 2026-04-25 15:10 | 21.66414 | 114.54847 | 13038 ft | 312 kts | 296° |
| 2026-04-25 15:10 | 21.68181 | 114.50795 | 12847 ft | 288 kts | 296° |
| 2026-04-25 15:11 | 21.69009 | 114.48878 | 12717 ft | 278 kts | 296° |
| 2026-04-25 15:11 | 21.69810 | 114.47027 | 12592 ft | 268 kts | 296° |
| 2026-04-25 15:11 | 21.70586 | 114.45239 | 12141 ft | 268 kts | 296° |
| 2026-04-25 15:12 | 21.72155 | 114.41648 | 11509 ft | 266 kts | 296° |
| 2026-04-25 15:12 | 21.72938 | 114.39852 | 11172 ft | 265 kts | 296° |
| 2026-04-25 15:12 | 21.73731 | 114.38058 | 10813 ft | 266 kts | 296° |
| 2026-04-25 15:12 | 21.74000 | 114.37447 | 10685 ft | 266 kts | 296° |
| 2026-04-25 15:13 | 21.75311 | 114.34466 | 10195 ft | 263 kts | 296° |
| 2026-04-25 15:13 | 21.76622 | 114.31490 | 9636 ft | 262 kts | 296° |
| 2026-04-25 15:13 | 21.77642 | 114.29157 | 9228 ft | 260 kts | 296° |
| 2026-04-25 15:14 | 21.78375 | 114.27377 | 8854 ft | 260 kts | 285° |
| 2026-04-25 15:14 | 21.78513 | 114.25451 | 8550 ft | 259 kts | 269° |
| 2026-04-25 15:14 | 21.78443 | 114.24170 | 8330 ft | 259 kts | 267° |
| 2026-04-25 15:14 | 21.78304 | 114.22248 | 8055 ft | 256 kts | 266° |
| 2026-04-25 15:15 | 21.78168 | 114.20338 | 7994 ft | 257 kts | 266° |
| 2026-04-25 15:15 | 21.78038 | 114.18409 | 7999 ft | 259 kts | 266° |
| 2026-04-25 15:15 | 21.77904 | 114.16480 | 8000 ft | 258 kts | 266° |
| 2026-04-25 15:15 | 21.77774 | 114.14550 | 7904 ft | 258 kts | 266° |
| 2026-04-25 15:16 | 21.77649 | 114.12621 | 7577 ft | 258 kts | 266° |
| 2026-04-25 15:16 | 21.77531 | 114.10705 | 7283 ft | 256 kts | 266° |
| 2026-04-25 15:16 | 21.77319 | 114.06904 | 6687 ft | 253 kts | 266° |
| 2026-04-25 15:17 | 21.77174 | 114.03130 | 6035 ft | 252 kts | 266° |
| 2026-04-25 15:17 | 21.77286 | 114.01259 | 5705 ft | 252 kts | 287° |
| 2026-04-25 15:17 | 21.78184 | 113.99707 | 5530 ft | 242 kts | 317° |
| 2026-04-25 15:18 | 21.79505 | 113.98649 | 5319 ft | 234 kts | 325° |
| 2026-04-25 15:18 | 21.82219 | 113.96759 | 4626 ft | 230 kts | 326° |
| 2026-04-25 15:18 | 21.83567 | 113.95826 | 4245 ft | 230 kts | 327° |
| 2026-04-25 15:19 | 21.84888 | 113.94902 | 4009 ft | 227 kts | 327° |
| 2026-04-25 15:19 | 21.85769 | 113.94250 | 3998 ft | 228 kts | 323° |
| 2026-04-25 15:19 | 21.87455 | 113.92850 | 3998 ft | 229 kts | 321° |
| 2026-04-25 15:19 | 21.88686 | 113.91804 | 3995 ft | 228 kts | 321° |
| 2026-04-25 15:20 | 21.89933 | 113.90743 | 3994 ft | 229 kts | 321° |
| 2026-04-25 15:20 | 21.91183 | 113.89681 | 3996 ft | 229 kts | 321° |
| 2026-04-25 15:20 | 21.92441 | 113.88618 | 4001 ft | 230 kts | 321° |
| 2026-04-25 15:20 | 21.93706 | 113.87557 | 3990 ft | 230 kts | 321° |
| 2026-04-25 15:21 | 21.94972 | 113.86498 | 3990 ft | 230 kts | 321° |
| 2026-04-25 15:21 | 21.96241 | 113.85440 | 3990 ft | 231 kts | 321° |
| 2026-04-25 15:21 | 21.97508 | 113.84380 | 3991 ft | 231 kts | 321° |
| 2026-04-25 15:21 | 21.98778 | 113.83319 | 3991 ft | 231 kts | 321° |
| 2026-04-25 15:22 | 22.00046 | 113.82259 | 3986 ft | 231 kts | 321° |
| 2026-04-25 15:22 | 22.01315 | 113.81195 | 3985 ft | 231 kts | 321° |
| 2026-04-25 15:22 | 22.02576 | 113.80136 | 3987 ft | 229 kts | 321° |
| 2026-04-25 15:22 | 22.03833 | 113.79076 | 3985 ft | 229 kts | 321° |
| 2026-04-25 15:23 | 22.05095 | 113.78010 | 3988 ft | 230 kts | 321° |
| 2026-04-25 15:23 | 22.06377 | 113.77020 | 3982 ft | 230 kts | 333° |
| 2026-04-25 15:23 | 22.07905 | 113.76540 | 3989 ft | 230 kts | 349° |
| 2026-04-25 15:23 | 22.09487 | 113.76259 | 3990 ft | 230 kts | 351° |
| 2026-04-25 15:24 | 22.11071 | 113.76002 | 3987 ft | 229 kts | 351° |
| 2026-04-25 15:24 | 22.12633 | 113.75750 | 3721 ft | 226 kts | 352° |
| 2026-04-25 15:24 | 22.14189 | 113.75491 | 3350 ft | 226 kts | 352° |
| 2026-04-25 15:24 | 22.15230 | 113.75307 | 3196 ft | 221 kts | 352° |
| 2026-04-25 15:25 | 22.17147 | 113.74958 | 3058 ft | 199 kts | 351° |
| 2026-04-25 15:25 | 22.18490 | 113.74710 | 2770 ft | 193 kts | 351° |
| 2026-04-25 15:25 | 22.19811 | 113.74465 | 2423 ft | 192 kts | 352° |
| 2026-04-25 15:25 | 22.21125 | 113.74220 | 2057 ft | 191 kts | 352° |
| 2026-04-25 15:26 | 22.22431 | 113.73972 | 1698 ft | 190 kts | 351° |
| 2026-04-25 15:26 | 22.23732 | 113.73725 | 1488 ft | 189 kts | 351° |
| 2026-04-25 15:26 | 22.25034 | 113.73516 | 1480 ft | 190 kts | 0° |
| 2026-04-25 15:26 | 22.26245 | 113.73971 | 1494 ft | 187 kts | 46° |
| 2026-04-25 15:27 | 22.26730 | 113.75211 | 1517 ft | 182 kts | 89° |
| 2026-04-25 15:27 | 22.26784 | 113.76577 | 1506 ft | 183 kts | 75° |
| 2026-04-25 15:27 | 22.27649 | 113.79138 | 1512 ft | 183 kts | 71° |
| 2026-04-25 15:28 | 22.28068 | 113.80434 | 1508 ft | 183 kts | 72° |
| 2026-04-25 15:28 | 22.28472 | 113.81684 | 1479 ft | 170 kts | 72° |
| 2026-04-25 15:28 | 22.28854 | 113.82863 | 1348 ft | 158 kts | 72° |
| 2026-04-25 15:28 | 22.29207 | 113.83958 | 1164 ft | 155 kts | 72° |
| 2026-04-25 15:29 | 22.29560 | 113.85049 | 980 ft | 153 kts | 72° |
| 2026-04-25 15:29 | 22.29908 | 113.86127 | 785 ft | 152 kts | 72° |
| 2026-04-25 15:29 | 22.30252 | 113.87194 | 596 ft | 149 kts | 72° |
| 2026-04-25 15:29 | 22.30592 | 113.88247 | 406 ft | 147 kts | 71° |
| 2026-04-25 15:30 | 22.30929 | 113.89289 | 202 ft | 146 kts | 72° |
| 2026-04-25 15:30 | 22.31247 | 113.90320 | 38 ft | 137 kts | 68° |
| 2026-04-25 15:30 | 22.31519 | 113.91125 | 30 ft | 89 kts | 72° |
| 2026-04-25 15:30 | 22.31645 | 113.91539 | 31 ft | 21 kts | 83° |
| 2026-04-25 15:31 | 22.31650 | 113.91692 | 33 ft | 20 kts | 95° |
| 2026-04-25 15:31 | 22.31638 | 113.91773 | 33 ft | 0 kts | 100° |
| 2026-04-25 15:31 | 22.31637 | 113.91780 | 33 ft | 2 kts | 100° |
| 2026-04-25 15:31 | 22.31632 | 113.91799 | 33 ft | 3 kts | 106° |
| 2026-04-25 15:32 | 22.31613 | 113.91820 | 32 ft | 5 kts | 160° |
| 2026-04-25 15:32 | 22.31576 | 113.91815 | 32 ft | 6 kts | 202° |
| 2026-04-25 15:32 | 22.31549 | 113.91779 | 32 ft | 7 kts | 247° |
| 2026-04-25 15:33 | 22.31509 | 113.91664 | 31 ft | 9 kts | 250° |
| 2026-04-25 15:33 | 22.31486 | 113.91594 | 32 ft | 10 kts | 251° |
| 2026-04-25 15:33 | 22.31461 | 113.91517 | 32 ft | 11 kts | 251° |
| 2026-04-25 15:33 | 22.31427 | 113.91438 | 32 ft | 12 kts | 219° |
| 2026-04-25 15:34 | 22.31349 | 113.91444 | 32 ft | 12 kts | 162° |
| 2026-04-25 15:34 | 22.31276 | 113.91470 | 32 ft | 8 kts | 161° |
| 2026-04-25 15:34 | 22.31255 | 113.91517 | 32 ft | 8 kts | 76° |
| 2026-04-25 15:34 | 22.31267 | 113.91556 | 32 ft | 9 kts | 71° |
| 2026-04-25 15:35 | 22.31275 | 113.91579 | 32 ft | 0 kts | 70° |